• Join FlightAware (Why Join?)
  • Login
  • US Flag 
10:10PM EST


 

Airport Tracker/Info


-or-


 

Live Flight TrackerFlight Track Log ✈ ACA810 ✈ 05-Jul-2013 ✈ CYYZ - LTBA / IST

Flight Track Log - Related Links

Times and Time Zones

All times are in EDT time to prevent confusion due to time zone crossing. See the ACA810 flight status page for this flight to view local times or setup timezone preferences in your user account.

Time Position Orientation Groundspeed Altitude Reporting Facility
EDT Latitude Longitude Course Direction KTS MPH feet Rate Location/Type
08:14PM 43.6750 -79.6140 126° Southeast 10 12  Level FlightAware
08:23PM 43.6550 -79.6270 230° Southwest 183 211 900 180 Climbing FlightAware
08:23PM 43.6420 -79.6450 225° Southwest 176 203 2,000 2,760 Climbing FlightAware
08:24PM 43.6260 -79.6670 225° Southwest 183 211 3,000 2,280 Climbing FlightAware
08:24PM 43.6110 -79.6870 224° Southwest 188 216 3,900 1,980 Climbing FlightAware
08:24PM 43.6040 -79.6950 220° Southwest 194 223 4,200 1,200 Climbing FlightAware
08:24PM 43.5900 -79.7010 197° South 219 252 4,400 1,020 Climbing FlightAware
08:25PM 43.5650 -79.6820 151° Southeast 260 299 4,900 1,620 Climbing FlightAware
08:25PM 43.5570 -79.6600 117° Southeast 267 307 5,500 2,400 Climbing FlightAware
08:26PM 43.5700 -79.5800 77° East 296 341 7,300 2,400 Climbing FlightAware
08:26PM 43.5750 -79.5630 68° East 300 345 7,700 2,400 Climbing FlightAware
08:26PM 43.5890 -79.5090 70° East 309 356 8,900 2,460 Climbing FlightAware
08:27PM 43.6100 -79.4250 71° East 320 368 10,800 1,860 Climbing FlightAware
08:28PM 43.6300 -79.3470 70° East 361 415 11,600 1,920 Climbing FlightAware
08:29PM 43.6570 -79.2350 72° East 378 435 13,500 2,340 Climbing FlightAware
08:29PM 43.6790 -79.1540 69° East 394 453 14,700 2,160 Climbing FlightAware
08:30PM 43.7010 -79.0560 73° East 402 463 16,200 2,220 Climbing FlightAware
08:31PM 43.7240 -78.9570 72° East 410 472 17,700 2,160 Climbing FlightAware
08:31PM 43.7490 -78.8570 71° East 417 480 19,100 1,920 Climbing FlightAware
08:32PM 43.7770 -78.7540 69° East 429 494 20,300 1,800 Climbing FlightAware
08:33PM 43.8100 -78.6550 65° Northeast 439 505 21,500 1,740 Climbing FlightAware
08:33PM 43.8500 -78.5390 64° Northeast 450 518 22,800 1,500 Climbing FlightAware
08:34PM 43.8850 -78.4370 65° Northeast 460 529 23,700 1,080 Climbing FlightAware
08:35PM 43.9240 -78.3250 64° Northeast 485 558 24,300 660 Climbing FlightAware
08:35PM 43.9700 -78.2010 63° Northeast 511 588 24,700 900 Climbing FlightAware
08:36PM 44.0350 -78.0610 57° Northeast 524 603 25,800 1,440 Climbing FlightAware
08:37PM 44.0910 -77.9480 55° Northeast 528 608 26,900 1,800 Climbing FlightAware
08:38PM 44.1450 -77.8390 55° Northeast 523 602 28,200 1,560 Climbing FlightAware
08:38PM 44.2140 -77.6980 56° Northeast 529 609 29,300 1,380 Climbing FlightAware
08:39PM 44.2690 -77.5880 55° Northeast 528 608 30,300 1,320 Climbing FlightAware
08:40PM 44.3280 -77.4650 56° Northeast 530 610 31,200 1,260 Climbing FlightAware
08:41PM 44.3910 -77.3360 56° Northeast 530 610 32,200 1,200 Climbing FlightAware
08:41PM 44.4500 -77.2140 56° Northeast 533 613 32,900 540 Climbing FlightAware
08:42PM 44.5080 -77.0950 56° Northeast 539 620 33,000 60 Climbing FlightAware
08:43PM 44.5690 -76.9690 56° Northeast 537 618 33,000  Level FlightAware
08:43PM 44.6300 -76.8390 57° Northeast 534 615 33,000  Level FlightAware
08:44PM 44.7020 -76.6900 56° Northeast 529 609 33,000  Level FlightAware
08:45PM 44.7580 -76.5700 57° Northeast 525 604 33,000  Level FlightAware
08:46PM 44.8200 -76.4400 56° Northeast 523 602 33,000  Level FlightAware
08:46PM 44.8720 -76.3280 57° Northeast 517 595 33,000  Level FlightAware
08:47PM 44.9350 -76.1910 57° Northeast 523 602 33,000  Level FlightAware
08:48PM 44.9930 -76.0650 57° Northeast 527 606 33,000  Level FlightAware
08:48PM 45.0410 -75.9590 57° Northeast 530 610 33,000  Level FlightAware
08:49PM 45.0960 -75.8380 57° Northeast 532 612 33,000  Level FlightAware
08:50PM 45.1520 -75.7140 57° Northeast 534 615 33,000  Level FlightAware
08:50PM 45.2010 -75.6080 57° Northeast 535 616 33,000  Level FlightAware
08:51PM 45.2540 -75.4890 58° Northeast 535 616 33,000  Level FlightAware
08:52PM 45.3100 -75.3640 57° Northeast 533 613 33,000  Level FlightAware
08:53PM 45.3650 -75.2410 57° Northeast 531 611 33,000  Level FlightAware
08:53PM 45.4240 -75.1090 57° Northeast 531 611 33,000  Level FlightAware
08:54PM 45.4780 -74.9860 58° Northeast 530 610 33,000  Level FlightAware
08:55PM 45.5310 -74.8660 58° Northeast 529 609 33,000  Level FlightAware
08:55PM 45.5770 -74.7600 58° Northeast 530 610 33,000  Level FlightAware
08:56PM 45.6290 -74.6410 58° Northeast 528 608 33,000  Level FlightAware
08:57PM 45.6850 -74.5130 58° Northeast 528 608 33,000  Level FlightAware
08:57PM 45.7270 -74.4170 58° Northeast 527 606 33,000  Level FlightAware
08:58PM 45.7830 -74.2850 59° Northeast 527 606 33,000  Level FlightAware
08:59PM 45.8330 -74.1690 58° Northeast 526 605 33,000  Level FlightAware
08:59PM 45.8890 -74.0370 59° Northeast 526 605 33,000  Level FlightAware
09:00PM 45.9400 -73.9190 58° Northeast 526 605 33,000  Level FlightAware
09:01PM 45.9930 -73.7920 59° Northeast 524 603 33,000  Level FlightAware
09:01PM 46.0490 -73.6600 59° Northeast 525 604 33,000  Level FlightAware
09:02PM 46.1000 -73.5390 59° Northeast 526 605 33,000  Level FlightAware
09:03PM 46.1550 -73.4070 59° Northeast 528 608 33,000  Level FlightAware
09:03PM 46.2050 -73.2870 59° Northeast 529 609 33,000  Level FlightAware
09:04PM 46.2600 -73.1530 59° Northeast 528 608 33,000  Level FlightAware
09:05PM 46.3100 -73.0330 59° Northeast 525 604 33,000  Level FlightAware
09:06PM 46.3650 -72.9000 59° Northeast 525 604 33,000  Level FlightAware
09:06PM 46.4170 -72.7720 59° Northeast 524 603 33,000  Level FlightAware
09:07PM 46.4650 -72.6520 60° Northeast 522 601 33,000  Level FlightAware
09:08PM 46.5190 -72.5190 59° Northeast 523 602 33,000  Level FlightAware
09:08PM 46.5650 -72.4060 59° Northeast 522 601 33,000  Level FlightAware
09:09PM 46.6160 -72.2780 60° Northeast 523 602 33,000  Level FlightAware
09:10PM 46.6600 -72.1670 60° Northeast 523 602 33,000  Level FlightAware
09:10PM 46.7130 -72.0340 60° Northeast 521 600 33,000  Level FlightAware
09:11PM 46.7540 -71.9320 60° Northeast 520 598 33,000  Level FlightAware
09:12PM 46.8070 -71.7980 60° Northeast 521 600 33,000  Level FlightAware
09:12PM 46.8480 -71.6920 60° Northeast 521 600 33,000  Level FlightAware
09:13PM 46.8970 -71.5660 60° Northeast 521 600 33,000  Level FlightAware
09:14PM 46.9460 -71.4420 60° Northeast 522 601 33,000  Level FlightAware
09:14PM 46.9930 -71.3190 61° Northeast 522 601 33,000  Level FlightAware
09:15PM 47.0430 -71.1890 61° Northeast 524 603 33,000  Level FlightAware
09:16PM 47.0940 -71.0570 60° Northeast 523 602 33,000  Level FlightAware
09:16PM 47.1410 -70.9340 61° Northeast 524 603 33,000  Level FlightAware
09:17PM 47.1900 -70.8040 61° Northeast 522 601 33,000  Level FlightAware
09:18PM 47.2410 -70.6700 61° Northeast 523 602 33,000  Level FlightAware
09:18PM 47.2790 -70.5690 61° Northeast 523 602 33,000  Level FlightAware
09:19PM 47.3290 -70.4370 61° Northeast 522 601 33,000  Level FlightAware
09:20PM 47.3720 -70.3210 61° Northeast 524 603 33,000  Level FlightAware
09:20PM 47.4190 -70.1940 61° Northeast 524 603 33,000  Level FlightAware
09:21PM 47.4720 -70.0510 61° Northeast 523 602 33,000  Level FlightAware
09:22PM 47.5200 -69.9200 61° Northeast 520 598 33,000  Level FlightAware
09:22PM 47.5630 -69.8000 62° Northeast 517 595 33,000  Level FlightAware
09:23PM 47.6070 -69.6810 61° Northeast 516 594 33,000  Level FlightAware
09:24PM 47.6620 -69.5270 62° Northeast 516 594 33,000  Level FlightAware
09:25PM 47.7080 -69.4010 61° Northeast 516 594 33,000  Level FlightAware
09:25PM 47.7470 -69.2910 62° Northeast 514 592 33,000  Level FlightAware
09:26PM 47.7920 -69.1670 62° Northeast 515 593 33,000  Level FlightAware
09:27PM 47.8360 -69.0410 62° Northeast 513 590 33,000  Level FlightAware
09:27PM 47.8750 -68.9310 62° Northeast 513 590 33,000  Level FlightAware
09:28PM 47.9310 -68.7730 62° Northeast 509 586 33,000  Level FlightAware
09:29PM 47.9730 -68.6550 62° Northeast 509 586 33,000  Level FlightAware
09:29PM 48.0070 -68.5600 62° Northeast 509 586 33,000  Level FlightAware
09:30PM 48.0700 -68.3800 62° Northeast 509 586 33,000  Level FlightAware
09:31PM 48.1170 -68.2500 62° Northeast 509 586 33,000  Level FlightAware
09:32PM 48.1520 -68.1500 62° Northeast 509 586 33,000  Level FlightAware
09:32PM 48.1860 -68.0540 62° Northeast 509 586 33,000  Level FlightAware
09:34PM 48.2540 -67.8630 62° Northeast 509 586 33,000  Level FlightAware
09:34PM 48.2870 -67.7680 62° Northeast 509 586 33,000  Level FlightAware
09:35PM 48.3440 -67.6080 62° Northeast 509 586 33,000  Level FlightAware
09:36PM 48.3890 -67.4800 62° Northeast 509 586 33,000  Level FlightAware
09:37PM 48.4230 -67.3850 62° Northeast 509 586 33,000  Level FlightAware
09:38PM 48.4690 -67.2540 62° Northeast 509 586 33,000  Level FlightAware
09:38PM 48.5833 -66.8000 62° Northeast 500 575 33,000  Level Moncton Center
09:39PM 48.6500 -66.6000 63° Northeast 510 587 33,000  Level Moncton Center
09:40PM 48.7000 -66.4000 69° East 510 587 33,000  Level Moncton Center
09:41PM 48.7667 -66.2000 63° Northeast 510 587 33,000  Level Moncton Center
09:42PM 48.8333 -66.0167 61° Northeast 510 587 33,000  Level Moncton Center
09:43PM 48.9000 -65.8167 63° Northeast 510 587 33,000  Level Moncton Center
09:44PM 48.9500 -65.6500 65° Northeast 510 587 33,000  Level Moncton Center
09:45PM 49.0167 -65.4500 63° Northeast 510 587 33,000  Level Moncton Center
09:46PM 49.0667 -65.2333 71° East 510 587 33,000  Level Moncton Center
09:47PM 49.1333 -65.0667 59° Northeast 510 587 33,000  Level Moncton Center
09:48PM 49.1833 -64.8333 72° East 510 587 33,000  Level Moncton Center
09:49PM 49.2500 -64.6500 61° Northeast 510 587 33,000  Level Moncton Center
09:50PM 49.3000 -64.4500 69° East 510 587 33,000  Level Moncton Center
09:51PM 49.3667 -64.2500 63° Northeast 510 587 33,000  Level Moncton Center
09:52PM 49.4167 -64.0333 70° East 510 587 33,000  Level Moncton Center
09:53PM 49.4833 -63.8500 61° Northeast 510 587 33,000  Level Moncton Center
09:54PM 49.5333 -63.6500 69° East 510 587 33,000  Level Moncton Center
09:55PM 49.6000 -63.4333 65° Northeast 510 587 33,000  Level Moncton Center
09:56PM 49.6167 -63.2667 81° East 490 564 33,000  Level Moncton Center
09:57PM 49.7167 -63.0500 54° Northeast 510 587 33,000  Level Moncton Center
09:58PM 49.7667 -62.8667 67° East 510 587 33,000  Level Moncton Center
09:59PM 49.8167 -62.6667 69° East 500 575 33,000  Level Moncton Center
10:00PM 49.8833 -62.4500 64° Northeast 500 575 33,000  Level Moncton Center
10:01PM 49.9167 -62.2667 74° East 490 564 33,000  Level Moncton Center
10:02PM 49.9833 -62.0500 64° Northeast 490 564 33,000  Level Moncton Center
10:03PM 50.0333 -61.8667 67° East 490 564 33,000  Level Moncton Center
10:04PM 50.0833 -61.6833 67° East 480 552 33,000  Level Moncton Center
10:05PM 50.1167 -61.5000 74° East 490 564 33,000  Level Moncton Center
10:06PM 50.1833 -61.2833 64° Northeast 480 552 33,000  Level Moncton Center
10:07PM 50.2333 -61.1000 67° East 480 552 33,000  Level Moncton Center
10:08PM 50.2833 -60.8833 70° East 480 552 33,000  Level Moncton Center
10:09PM 50.3333 -60.7000 67° East 480 552 33,000  Level Moncton Center
10:10PM 50.3833 -60.5167 67° East 480 552 33,000  Level Moncton Center
10:11PM 50.4167 -60.3000 76° East 480 552 33,000  Level Moncton Center
10:12PM 50.4833 -60.1000 62° Northeast 480 552 33,000  Level Moncton Center
10:13PM 50.5333 -59.9167 67° East 480 552 33,000  Level Moncton Center
10:14PM 50.5667 -59.7000 76° East 480 552 33,000  Level Moncton Center
10:15PM 50.6333 -59.5167 60° Northeast 480 552 33,000  Level Moncton Center
10:16PM 50.6667 -59.3167 75° East 470 541 33,000  Level Moncton Center
10:17PM 50.7333 -59.1333 60° Northeast 470 541 33,000  Level Moncton Center
10:18PM 50.7833 -58.9333 68° East 470 541 33,000  Level Moncton Center
10:19PM 50.8333 -58.7833 62° Northeast 470 541 33,000  Level Moncton Center
10:20PM 50.8833 -58.5833 68° East 470 541 33,000  Level Moncton Center
10:21PM 50.9500 -58.3833 62° Northeast 470 541 33,000  Level Moncton Center
10:22PM 51.0000 -58.2000 67° East 470 541 33,000  Level Moncton Center
10:23PM 51.0500 -58.0000 68° East 470 541 33,000  Level Moncton Center
10:24PM 51.1000 -57.8167 66° East 460 529 33,000  Level Moncton Center
10:25PM 51.1500 -57.6167 68° East 470 541 33,000  Level Moncton Center
10:26PM 51.2000 -57.4500 64° Northeast 460 529 33,000  Level Moncton Center
10:27PM 51.2500 -57.2500 68° East 460 529 33,000  Level Moncton Center
10:28PM 51.3000 -57.0500 68° East 460 529 33,000  Level Moncton Center
10:29PM 51.3500 -56.8833 64° Northeast 460 529 33,000 300 Level Moncton Center
10:30PM 51.4000 -56.6833 68° East 460 529 33,700 480 Climbing Moncton Center
10:31PM 51.4500 -56.5000 66° East 460 529 34,000 120 Climbing Moncton Center
10:32PM 51.5167 -56.3000 62° Northeast 470 541 34,000  Level Moncton Center
10:33PM 51.5500 -56.1000 75° East 460 529 34,000  Level Moncton Center
10:34PM 51.6000 -55.9000 68° East 460 529 34,000  Level Moncton Center
10:35PM 51.6333 -55.7333 72° East 450 518 34,000  Level Moncton Center
10:36PM 51.6833 -55.5333 68° East 450 518 34,000  Level Moncton Center
10:37PM 51.7333 -55.3667 64° Northeast 440 506 34,000  Level Moncton Center
10:38PM 51.7833 -55.1667 68° East 450 518 34,000  Level Gander Center
10:39PM 51.8167 -54.9667 75° East 450 518 34,000  Level Gander Center
10:40PM 51.8833 -54.7833 59° Northeast 460 529 34,000  Level Gander Center
10:41PM 51.9167 -54.5833 75° East 460 529 34,000  Level Gander Center
10:42PM 51.9667 -54.3833 68° East 460 529 34,000  Level Gander Center
10:43PM 52.0167 -54.2167 64° Northeast 460 529 34,000  Level Gander Center
10:45PM 52.0667 -53.9333 74° East 470 541 34,000  Level Gander Center
10:46PM 52.1167 -53.7500 66° East 450 518 34,000  Level Gander Center
10:46PM 52.1500 -53.6167 68° East 460 529 34,000  Level Gander Center
10:47PM 52.1833 -53.4167 75° East 460 529 34,000  Level Gander Center
10:48PM 52.2333 -53.2500 64° Northeast 450 518 34,000  Level Gander Center
10:49PM 52.2833 -53.0500 68° East 450 518 34,000  Level Gander Center
10:49PM 52.2167 -53.3667 68° East 463 533 34,000  Level ETMS Enhanced Traffic Management System
10:50PM 52.3333 -52.8500 68° East 460 529 34,000  Level Gander Center
10:51PM 52.3833 -52.6167 71° East 450 518 34,000  Level Gander Center
10:53PM 52.4333 -52.4167 68° East 450 518 34,000  Level Gander Center
10:54PM 52.4833 -52.2000 69° East 460 529 34,000  Level Gander Center
10:55PM 52.5167 -52.0333 72° East 450 518 34,000  Level Gander Center
10:56PM 52.5667 -51.8333 68° East 450 518 34,000  Level Gander Center
10:57PM 52.6000 -51.6500 73° East 450 518 34,000  Level Gander Center
10:58PM 52.6500 -51.4500 68° East 460 529 34,000  Level Gander Center
10:59PM 52.7000 -51.2667 66° East 460 529 34,000  Level Gander Center
11:00PM 52.7167 -51.0833 81° East 450 518 34,000  Level Gander Center
11:01PM 52.8000 -50.8667 57° Northeast 460 529 34,000  Level Gander Center
11:03PM 52.8667 -50.4833 74° East 460 529 34,000  Level Gander Center
11:04PM 52.9167 -50.2667 69° East 450 518 34,000  Level Gander Center
11:05PM 52.9500 -50.0667 74° East 450 518 34,000  Level Gander Center
11:06PM 53.0167 -49.8500 63° Northeast 470 541 34,000  Level Gander Center
11:07PM 53.0000 -50.0000 76° East 471 542 34,000  Level ETMS Enhanced Traffic Management System
11:13PM 53.2333 -48.2975 78° East 471 542 34,000  Level FlightAware Transoceanic
11:14PM 53.2608 -48.0835 78° East 471 542 34,000  Level FlightAware Transoceanic
11:15PM 53.2878 -47.8691 78° East 471 542 34,000  Level FlightAware Transoceanic
11:16PM 53.3145 -47.6545 78° East 471 542 34,000  Level FlightAware Transoceanic
11:17PM 53.3408 -47.4396 79° East 471 542 34,000  Level FlightAware Transoceanic
11:18PM 53.3667 -47.2244 79° East 471 542 34,000  Level FlightAware Transoceanic
11:19PM 53.3922 -47.0090 79° East 471 542 34,000  Level FlightAware Transoceanic
11:20PM 53.4174 -46.7933 79° East 471 542 34,000  Level FlightAware Transoceanic
11:21PM 53.4421 -46.5774 79° East 471 542 34,000  Level FlightAware Transoceanic
11:22PM 53.4665 -46.3612 79° East 471 542 34,000  Level FlightAware Transoceanic
11:23PM 53.4904 -46.1448 80° East 471 542 34,000  Level FlightAware Transoceanic
11:24PM 53.5140 -45.9281 80° East 471 542 34,000  Level FlightAware Transoceanic
11:25PM 53.5372 -45.7112 80° East 471 542 34,000  Level FlightAware Transoceanic
11:26PM 53.5600 -45.4941 80° East 471 542 34,000  Level FlightAware Transoceanic
11:27PM 53.5824 -45.2767 80° East 471 542 34,000  Level FlightAware Transoceanic
11:28PM 53.6044 -45.0591 80° East 471 542 34,000  Level FlightAware Transoceanic
11:29PM 53.6260 -44.8413 81° East 471 542 34,000  Level FlightAware Transoceanic
11:30PM 53.6472 -44.6232 81° East 471 542 34,000  Level FlightAware Transoceanic
11:31PM 53.6680 -44.4050 81° East 471 542 34,000  Level FlightAware Transoceanic
11:32PM 53.6884 -44.1865 81° East 471 542 34,000  Level FlightAware Transoceanic
11:33PM 53.7084 -43.9678 81° East 471 542 34,000  Level FlightAware Transoceanic
11:34PM 53.7281 -43.7489 81° East 471 542 34,000  Level FlightAware Transoceanic
11:35PM 53.7473 -43.5298 82° East 471 542 34,000  Level FlightAware Transoceanic
11:36PM 53.7661 -43.3105 82° East 471 542 34,000  Level FlightAware Transoceanic
11:37PM 53.7845 -43.0910 82° East 471 542 34,000  Level FlightAware Transoceanic
11:38PM 53.8025 -42.8714 82° East 471 542 34,000  Level FlightAware Transoceanic
11:39PM 53.8201 -42.6515 82° East 471 542 34,000  Level FlightAware Transoceanic
11:40PM 53.8374 -42.4314 83° East 471 542 34,000  Level FlightAware Transoceanic
11:41PM 53.8542 -42.2112 83° East 471 542 34,000  Level FlightAware Transoceanic
11:42PM 53.8706 -41.9908 83° East 471 542 34,000  Level FlightAware Transoceanic
11:43PM 53.8866 -41.7702 83° East 471 542 34,000  Level FlightAware Transoceanic
11:44PM 53.9022 -41.5495 83° East 471 542 34,000  Level FlightAware Transoceanic
11:45PM 53.9174 -41.3286 83° East 471 542 34,000  Level FlightAware Transoceanic
11:46PM 53.9322 -41.1075 84° East 471 542 34,000  Level FlightAware Transoceanic
11:47PM 53.9465 -40.8863 84° East 471 542 34,000  Level FlightAware Transoceanic
11:48PM 53.9605 -40.6650 84° East 471 542 34,000  Level FlightAware Transoceanic
11:49PM 53.9741 -40.4435 84° East 471 542 34,000  Level FlightAware Transoceanic
11:50PM 53.9873 -40.2218 84° East 471 542 34,000  Level FlightAware Transoceanic
11:51PM 54.0004 -39.9934 84° East  Level FlightAware Approximate
11:52PM 54.0031 -39.9879 67° East  Level FlightAware Approximate
11:53PM 54.0562 -39.7768 67° East  Level FlightAware Approximate
11:54PM 54.1089 -39.5651 67° East  Level FlightAware Approximate
11:54PM 54.0000 -40.0000 67° East 520 598 34,000  Level ETMS Enhanced Traffic Management System
11:55PM 54.1613 -39.3529 67° East  Level FlightAware Approximate
11:56PM 54.2132 -39.1402 67° East  Level FlightAware Approximate
11:57PM 54.2646 -38.9281 67° East  Level FlightAware Approximate
11:58PM 54.3155 -38.7155 68° East  Level FlightAware Approximate
11:59PM 54.3661 -38.5023 68° East  Level FlightAware Approximate
12:00AM 54.4964 -37.9431 68° East 520 598 34,000  Level FlightAware Transoceanic
12:01AM 54.5494 -37.7115 69° East 520 598 34,000  Level FlightAware Transoceanic
12:02AM 54.6020 -37.4793 69° East 520 598 34,000  Level FlightAware Transoceanic
12:03AM 54.6540 -37.2465 69° East 520 598 34,000  Level FlightAware Transoceanic
12:04AM 54.7057 -37.0131 69° East 520 598 34,000  Level FlightAware Transoceanic
12:05AM 54.7569 -36.7791 69° East 520 598 34,000  Level FlightAware Transoceanic
12:06AM 54.8076 -36.5446 70° East 520 598 34,000  Level FlightAware Transoceanic
12:07AM 54.8579 -36.3094 70° East 520 598 34,000  Level FlightAware Transoceanic
12:08AM 54.9078 -36.0737 70° East 520 598 34,000  Level FlightAware Transoceanic
12:09AM 54.9571 -35.8374 70° East 520 598 34,000  Level FlightAware Transoceanic
12:10AM 55.0061 -35.6005 70° East 520 598 34,000  Level FlightAware Transoceanic
12:11AM 55.0545 -35.3630 71° East 520 598 34,000  Level FlightAware Transoceanic
12:12AM 55.1025 -35.1250 71° East 520 598 34,000  Level FlightAware Transoceanic
12:13AM 55.1500 -34.8863 71° East 520 598 34,000  Level FlightAware Transoceanic
12:14AM 55.1971 -34.6472 71° East 520 598 34,000  Level FlightAware Transoceanic
12:15AM 55.2437 -34.4074 71° East 520 598 34,000  Level FlightAware Transoceanic
12:16AM 55.2898 -34.1671 71° East 520 598 34,000  Level FlightAware Transoceanic
12:17AM 55.3354 -33.9263 72° East 520 598 34,000  Level FlightAware Transoceanic
12:18AM 55.3806 -33.6848 72° East 520 598 34,000  Level FlightAware Transoceanic
12:19AM 55.4253 -33.4429 72° East 520 598 34,000  Level FlightAware Transoceanic
12:20AM 55.4695 -33.2004 72° East 520 598 34,000  Level FlightAware Transoceanic
12:21AM 55.5133 -32.9573 72° East 520 598 34,000  Level FlightAware Transoceanic
12:22AM 55.5565 -32.7137 73° East 520 598 34,000  Level FlightAware Transoceanic
12:23AM 55.5993 -32.4696 73° East 520 598 34,000  Level FlightAware Transoceanic
12:24AM 55.6416 -32.2250 73° East 520 598 34,000  Level FlightAware Transoceanic
12:25AM 55.6834 -31.9798 73° East 520 598 34,000  Level FlightAware Transoceanic
12:26AM 55.7247 -31.7341 73° East 520 598 34,000  Level FlightAware Transoceanic
12:27AM 55.7655 -31.4879 74° East 520 598 34,000  Level FlightAware Transoceanic
12:28AM 55.8058 -31.2412 74° East 520 598 34,000  Level FlightAware Transoceanic
12:29AM 55.8457 -30.9939 74° East 520 598 34,000  Level FlightAware Transoceanic
12:30AM 55.8850 -30.7462 74° East 520 598 34,000  Level FlightAware Transoceanic
12:31AM 55.9238 -30.4980 75° East 520 598 34,000  Level FlightAware Transoceanic
12:32AM 55.9622 -30.2492 75° East 520 598 34,000  Level FlightAware Transoceanic
12:33AM 55.9973 -30.0178 75° East  Level FlightAware Approximate
12:34AM 56.0320 -29.7860 75° East  Level FlightAware Approximate
12:35AM 56.0080 -29.7975 86° East  Level FlightAware Approximate
12:35AM 56.0000 -30.0000 86° East 543 625 34,000  Level ETMS Enhanced Traffic Management System
12:36AM 56.0171 -29.5581 86° East  Level FlightAware Approximate
12:37AM 56.0257 -29.3185 86° East  Level FlightAware Approximate
12:38AM 56.0339 -29.0789 86° East  Level FlightAware Approximate
12:39AM 56.0416 -28.8391 87° East  Level FlightAware Approximate
12:40AM 56.0488 -28.5993 87° East  Level FlightAware Approximate
12:41AM 56.0686 -27.8412 88° East 543 625 34,000  Level FlightAware Transoceanic
12:42AM 56.0745 -27.5709 88° East 543 625 34,000  Level FlightAware Transoceanic
12:43AM 56.0798 -27.3005 88° East 543 625 34,000  Level FlightAware Transoceanic
12:44AM 56.0845 -27.0300 88° East 543 625 34,000  Level FlightAware Transoceanic
12:45AM 56.0887 -26.7595 89° East 543 625 34,000  Level FlightAware Transoceanic
12:46AM 56.0922 -26.4889 89° East 543 625 34,000  Level FlightAware Transoceanic
12:47AM 56.0952 -26.2182 89° East 543 625 34,000  Level FlightAware Transoceanic
12:48AM 56.0976 -25.9475 89° East 543 625 34,000  Level FlightAware Transoceanic
12:49AM 56.0993 -25.6768 89° East 543 625 34,000  Level FlightAware Transoceanic
12:50AM 56.1005 -25.4061 90° East 543 625 34,000  Level FlightAware Transoceanic
12:51AM 56.1011 -25.1354 90° East 543 625 34,000  Level FlightAware Transoceanic
12:52AM 56.1011 -24.8646 90° East 543 625 34,000  Level FlightAware Transoceanic
12:53AM 56.1005 -24.5939 90° East 543 625 34,000  Level FlightAware Transoceanic
12:54AM 56.0993 -24.3232 91° East 543 625 34,000  Level FlightAware Transoceanic
12:55AM 56.0976 -24.0525 91° East 543 625 34,000  Level FlightAware Transoceanic
12:56AM 56.0952 -23.7818 91° East 543 625 34,000  Level FlightAware Transoceanic
12:57AM 56.0922 -23.5111 91° East 543 625 34,000  Level FlightAware Transoceanic
12:58AM 56.0887 -23.2405 91° East 543 625 34,000  Level FlightAware Transoceanic
12:59AM 56.0845 -22.9700 92° East 543 625 34,000  Level FlightAware Transoceanic
01:00AM 56.0798 -22.6995 92° East 543 625 34,000  Level FlightAware Transoceanic
01:01AM 56.0745 -22.4291 92° East 543 625 34,000  Level FlightAware Transoceanic
01:02AM 56.0686 -22.1588 92° East 543 625 34,000  Level FlightAware Transoceanic
01:03AM 56.0621 -21.8886 93° East 543 625 34,000  Level FlightAware Transoceanic
01:04AM 56.0550 -21.6184 93° East 543 625 34,000  Level FlightAware Transoceanic
01:05AM 56.0473 -21.3484 93° East 543 625 34,000  Level FlightAware Transoceanic
01:06AM 56.0390 -21.0784 93° East 543 625 34,000  Level FlightAware Transoceanic
01:07AM 56.0301 -20.8086 93° East 543 625 34,000  Level FlightAware Transoceanic
01:08AM 56.0207 -20.5389 94° East 543 625 34,000  Level FlightAware Transoceanic
01:09AM 56.0106 -20.2694 94° East 543 625 34,000  Level FlightAware Transoceanic
01:10AM 56.0012 -20.0301 94° East  Level FlightAware Approximate
01:11AM 55.9913 -19.7908 94° East  Level FlightAware Approximate
01:12AM 55.9688 -19.8293 108° East  Level FlightAware Approximate
01:13AM 55.9267 -19.6018 108° East  Level FlightAware Approximate
01:14AM 55.8842 -19.3748 108° East  Level FlightAware Approximate
01:15AM 55.8413 -19.1483 109° East  Level FlightAware Approximate
01:16AM 55.7980 -18.9223 109° East  Level FlightAware Approximate
01:17AM 55.7542 -18.6968 109° East  Level FlightAware Approximate
01:18AM 55.7101 -18.4718 109° East  Level FlightAware Approximate
01:19AM 55.6655 -18.2474 109° East  Level FlightAware Approximate
01:20AM 55.6206 -18.0234 109° East  Level FlightAware Approximate
01:21AM 55.5752 -17.7999 110° East  Level FlightAware Approximate
01:22AM 55.5294 -17.5770 110° East  Level FlightAware Approximate
01:23AM 55.4832 -17.3546 110° East  Level FlightAware Approximate
01:24AM 55.4366 -17.1327 110° East  Level FlightAware Approximate
01:25AM 55.3897 -16.9114 110° East  Level FlightAware Approximate
01:26AM 55.3423 -16.6905 111° Southeast  Level FlightAware Approximate
01:27AM 55.2945 -16.4702 111° Southeast  Level FlightAware Approximate
01:28AM 55.2463 -16.2505 111° Southeast  Level FlightAware Approximate
01:29AM 55.1978 -16.0312 111° Southeast  Level FlightAware Approximate
01:30AM 55.1488 -15.8125 111° Southeast  Level FlightAware Approximate
01:31AM 55.0994 -15.5944 111° Southeast  Level FlightAware Approximate
01:32AM 55.0497 -15.3767 112° Southeast  Level FlightAware Approximate
01:33AM 54.9996 -15.1597 112° Southeast  Level FlightAware Approximate
01:34AM 54.9491 -14.9431 112° Southeast  Level FlightAware Approximate
01:35AM 54.8982 -14.7271 112° Southeast  Level FlightAware Approximate
01:36AM 54.8469 -14.5117 112° Southeast  Level FlightAware Approximate
01:37AM 54.7953 -14.2972 113° Southeast  Level FlightAware Approximate
01:37AM 54.7810 -13.6890 113° Southeast 484 557 34,500  Level FlightAware
01:38AM 54.7434 -14.0832 113° Southeast  Level FlightAware Approximate
01:38AM 54.7310 -13.5110 116° Southeast 486 559 35,000  Level FlightAware
01:38AM 54.6970 -13.3850 115° Southeast 482 555 35,000  Level FlightAware
01:39AM 54.6540 -13.2280 115° Southeast 480 552 35,000  Level FlightAware
01:40AM 54.6160 -13.0890 115° Southeast 478 550 35,000  Level FlightAware
01:41AM 54.5760 -12.9360 114° Southeast 478 550 35,000  Level FlightAware
01:41AM 54.5460 -12.8340 117° Southeast 477 549 35,000  Level FlightAware
01:42AM 54.5010 -12.6730 116° Southeast 479 551 35,000  Level FlightAware
01:43AM 54.4630 -12.5360 115° Southeast 479 551 35,000  Level FlightAware
01:43AM 54.4230 -12.3950 116° Southeast 479 551 35,000  Level FlightAware
01:44AM 54.3820 -12.2490 116° Southeast 479 551 35,000  Level FlightAware
01:45AM 54.3250 -12.0490 116° Southeast 479 551 35,000  Level FlightAware
01:46AM 54.2860 -11.9130 116° Southeast 478 550 35,000  Level FlightAware
01:46AM 54.2420 -11.7610 116° Southeast 477 549 35,000  Level FlightAware
01:47AM 54.2030 -11.6250 116° Southeast 478 550 35,000  Level FlightAware
01:48AM 54.1640 -11.4930 117° Southeast 478 550 35,000  Level FlightAware
01:48AM 54.1190 -11.3420 117° Southeast 475 547 35,000  Level FlightAware
01:49AM 54.0660 -11.1620 117° Southeast 474 545 35,000  Level FlightAware
01:50AM 54.0260 -11.0290 117° Southeast 474 545 35,000  Level FlightAware
01:51AM 53.9810 -10.8780 117° Southeast 472 543 35,000  Level FlightAware
01:51AM 53.9420 -10.7500 117° Southeast 471 542 35,000  Level FlightAware
01:52AM 53.8950 -10.5950 117° Southeast 471 542 35,000  Level FlightAware
01:53AM 53.8500 -10.4480 117° Southeast 471 542 35,000  Level FlightAware
01:54AM 53.8110 -10.3210 117° Southeast 471 542 35,000  Level FlightAware
01:54AM 53.7640 -10.1690 118° Southeast 471 542 35,000  Level FlightAware
01:55AM 53.7240 -10.0400 118° Southeast 471 542 35,000  Level FlightAware
01:56AM 53.6880 -9.9230 117° Southeast 472 543 35,000  Level FlightAware
01:56AM 53.6370 -9.7600 118° Southeast 476 548 35,000  Level FlightAware
01:57AM 53.6000 -9.6450 118° Southeast 477 549 35,000  Level FlightAware
01:58AM 53.5590 -9.5150 118° Southeast 477 549 35,000  Level FlightAware
01:58AM 53.5180 -9.3860 118° Southeast 477 549 35,000  Level FlightAware
01:59AM 53.4750 -9.2550 119° Southeast 478 550 35,000  Level FlightAware
01:59AM 53.4450 -9.1600 118° Southeast 477 549 35,000 -120 Level FlightAware
02:00AM 53.3914 -8.9969 118° Southeast 460 529 34,900  Descending FlightAware UK
02:00AM 53.3910 -8.9950 118° Southeast 477 549 35,000 120 Climbing FlightAware
02:01AM 53.3460 -8.8550 118° Southeast 476 548 35,000  Level FlightAware
02:02AM 53.2965 -8.7066 118° Southeast 460 529 35,000  Level FlightAware UK
02:02AM 53.2960 -8.7040 118° Southeast 477 549 35,000  Level FlightAware
02:02AM 53.2570 -8.5880 119° Southeast 475 547 35,000  Level FlightAware
02:03AM 53.2130 -8.4540 119° Southeast 475 547 35,000  Level FlightAware
02:04AM 53.1686 -8.3206 119° Southeast 456 525 35,000  Level FlightAware UK
02:04AM 53.1600 -8.2950 119° Southeast 476 548 35,000  Level FlightAware
02:05AM 53.1160 -8.1640 119° Southeast 476 548 35,000  Level FlightAware
02:05AM 53.0790 -8.0550 119° Southeast 476 548 35,000  Level FlightAware
02:06AM 53.0395 -7.9383 119° Southeast 456 525 35,000  Level FlightAware UK
02:06AM 53.0300 -7.9100 119° Southeast 476 548 35,000  Level FlightAware
02:07AM 52.9860 -7.7810 119° Southeast 476 548 35,000  Level FlightAware
02:07AM 52.9470 -7.6690 120° Southeast 477 549 35,000  Level FlightAware
02:08AM 52.9091 -7.5574 120° Southeast 454 522 35,000  Level FlightAware UK
02:08AM 52.9030 -7.5400 120° Southeast 478 550 35,000  Level FlightAware
02:09AM 52.8550 -7.4010 120° Southeast 479 551 35,000  Level FlightAware
02:09AM 52.8101 -7.2721 120° Southeast 452 520 35,000  Level FlightAware UK
02:09AM 52.8100 -7.2730 120° Southeast 481 554 35,000  Level FlightAware
02:10AM 52.7766 -7.1763 120° Southeast 452 520 35,000  Level FlightAware UK
02:10AM 52.7610 -7.1330 120° Southeast 481 554 35,000  Level FlightAware
02:11AM 52.7210 -7.0190 120° Southeast 482 555 35,000  Level FlightAware
02:11AM 52.6759 -6.8905 120° Southeast 454 522 35,000  Level FlightAware UK
02:11AM 52.6680 -6.8680 120° Southeast 485 558 35,000  Level FlightAware
02:12AM 52.6210 -6.7360 120° Southeast 487 560 35,000  Level FlightAware
02:13AM 52.5750 -6.6070 120° Southeast 487 560 35,000  Level FlightAware
02:13AM 52.5735 -6.6039 120° Southeast 458 527 35,000  Level FlightAware UK
02:13AM 52.5392 -6.5082 120° Southeast 460 529 35,000  Level FlightAware UK
02:13AM 52.5240 -6.4670 120° Southeast 488 562 35,000  Level FlightAware
02:14AM 52.4790 -6.3420 121° Southeast 488 562 35,000  Level FlightAware
02:15AM 52.4355 -6.2222 121° Southeast 458 527 35,000  Level FlightAware UK
02:15AM 52.4160 -6.1640 121° Southeast 485 558 35,000  Level FlightAware
02:16AM 52.3951 -6.0359 121° Southeast 456 525 35,000  Level FlightAware UK
02:16AM 52.3890 -6.0010 121° Southeast 489 563 35,000  Level FlightAware
02:16AM 52.3650 -5.8640 106° East 488 562 35,000  Level FlightAware
02:17AM 52.3372 -5.7169 106° East 456 525 35,000  Level FlightAware UK
02:17AM 52.3360 -5.7130 106° East 491 565 35,000  Level FlightAware
02:18AM 52.3070 -5.5640 108° East 491 565 35,000  Level FlightAware
02:19AM 52.2830 -5.4140 105° East 492 566 35,000  Level FlightAware
02:19AM 52.2623 -5.2892 105° East 456 525 35,000  Level FlightAware UK
02:19AM 52.2610 -5.2840 105° East 493 567 35,000  Level FlightAware
02:20AM 52.2406 -5.1605 105° East 458 527 35,000  Level FlightAware UK
02:20AM 52.2370 -5.1410 105° East 493 567 35,000  Level FlightAware
02:21AM 52.2100 -4.9830 106° East 494 568 35,000  Level FlightAware
02:21AM 52.1890 -4.8610 106° East 494 568 35,000  Level FlightAware
02:22AM 52.1624 -4.7102 106° East 458 527 35,000  Level FlightAware UK
02:22AM 52.1610 -4.7040 106° East 494 568 35,000  Level FlightAware
02:23AM 52.1350 -4.5530 106° East 495 570 35,000  Level FlightAware
02:23AM 52.1130 -4.4330 107° East 494 568 35,000  Level FlightAware
02:24AM 52.0870 -4.2870 106° East 494 568 35,000  Level FlightAware
02:25AM 52.0620 -4.1420 106° East 494 568 35,000  Level FlightAware
02:25AM 52.0366 -4.0043 106° East 456 525 35,000  Level FlightAware UK
02:25AM 52.0350 -3.9940 106° East 494 568 35,000  Level FlightAware
02:26AM 52.0070 -3.8440 107° East 493 567 35,000  Level FlightAware
02:27AM 51.9770 -3.6810 107° East 492 566 35,000  Level FlightAware
02:27AM 51.9545 -3.5581 107° East 454 522 35,000  Level FlightAware UK
02:27AM 51.9510 -3.5400 107° East 491 565 35,000  Level FlightAware
02:28AM 51.9250 -3.4000 107° East 491 565 35,000  Level FlightAware
02:29AM 51.8972 -3.2526 107° East 491 565 35,000  Level FlightAware ADS-B
02:29AM 51.8771 -3.1466 107° East 491 565 35,000  Level FlightAware ADS-B
02:30AM 51.8556 -3.0337 107° East 491 565 35,000  Level FlightAware ADS-B
02:30AM 51.8349 -2.9257 107° East 491 565 35,000  Level FlightAware ADS-B
02:31AM 51.8127 -2.8112 107° East 492 566 35,000  Level FlightAware ADS-B
02:31AM 51.7919 -2.7040 107° East 491 565 35,000  Level FlightAware ADS-B
02:32AM 51.7710 -2.5967 107° East 493 567 35,000  Level FlightAware ADS-B
02:32AM 51.7489 -2.4841 108° East 493 567 35,000  Level FlightAware ADS-B
02:33AM 51.7276 -2.3768 108° East 494 568 35,000  Level FlightAware ADS-B
02:33AM 51.7056 -2.2656 108° East 494 568 35,000  Level FlightAware ADS-B
02:34AM 51.6830 -2.1523 108° East 495 570 35,000  Level FlightAware ADS-B
02:34AM 51.6613 -2.0447 108° East 495 570 35,000  Level FlightAware ADS-B
02:35AM 51.6396 -1.9375 108° East 496 571 35,000  Level FlightAware ADS-B
02:36AM 51.6168 -1.8250 108° East 496 571 35,000  Level FlightAware ADS-B
02:36AM 51.5950 -1.7186 108° East 496 571 35,000  Level FlightAware ADS-B
02:37AM 51.5727 -1.6099 108° East 495 570 35,000  Level FlightAware ADS-B
02:37AM 51.5511 -1.5056 108° East 495 570 35,000  Level FlightAware ADS-B
02:38AM 51.5293 -1.4003 108° East 495 570 35,000  Level FlightAware ADS-B
02:38AM 51.5064 -1.2899 108° East 495 570 35,000  Level FlightAware ADS-B
02:38AM 51.5005 -1.2595 107° East 495 570 35,000  Level FlightAware ADS-B
02:39AM 51.4835 -1.1485 104° East 494 568 35,000  Level FlightAware ADS-B
02:39AM 51.4690 -1.0375 102° East 494 568 35,000  Level FlightAware ADS-B
02:40AM 51.4536 -0.9155 101° East 494 568 35,000  Level FlightAware ADS-B
02:40AM 51.4402 -0.8081 101° East 495 570 35,000  Level FlightAware ADS-B
02:41AM 51.4321 -0.7414 101° East 494 568 35,000  Level FlightAware ADS-B
02:41AM 51.4226 -0.6299 98° East 493 567 35,000  Level FlightAware ADS-B
02:42AM 51.4131 -0.5150 98° East 493 567 35,000  Level FlightAware ADS-B
02:42AM 51.4031 -0.3988 98° East 494 568 35,000  Level FlightAware ADS-B
02:43AM 51.3929 -0.2871 98° East 493 567 35,000  Level FlightAware ADS-B
02:43AM 51.3817 -0.1672 98° East 494 568 35,000  Level FlightAware ADS-B
02:44AM 51.3707 -0.0522 99° East 493 567 35,000  Level FlightAware ADS-B
02:44AM 51.3603 0.0566 99° East 493 567 35,000  Level FlightAware ADS-B
02:45AM 51.3500 0.1664 99° East 491 565 35,000  Level FlightAware ADS-B
02:45AM 51.3399 0.2771 98° East 491 565 35,000  Level FlightAware ADS-B
02:46AM 51.3269 0.4163 98° East 490 564 35,000  Level FlightAware ADS-B
02:47AM 51.3165 0.5263 99° East 490 564 35,000  Level FlightAware ADS-B
02:47AM 51.3057 0.6397 99° East 489 563 35,000  Level FlightAware ADS-B
02:48AM 51.2953 0.7479 99° East 488 562 35,000  Level FlightAware ADS-B
02:48AM 51.2839 0.8647 99° East 486 559 35,000  Level FlightAware ADS-B
02:49AM 51.2733 0.9723 99° East 485 558 35,000  Level FlightAware ADS-B
02:49AM 51.2591 1.1169 99° East 454 522 35,000  Level FlightAware UK
02:50AM 51.2550 1.1610 99° East 483 556 35,000  Level FlightAware
02:50AM 51.2422 1.2859 99° East 454 522 35,000  Level FlightAware UK
02:50AM 51.2380 1.3240 99° East 482 555 35,000  Level FlightAware
02:51AM 51.2249 1.4536 99° East 454 522 35,000  Level FlightAware UK
02:51AM 51.2200 1.4850 99° East 480 552 35,000  Level FlightAware
02:52AM 51.1870 1.6180 112° Southeast 481 554 35,000  Level FlightAware
02:52AM 51.1560 1.7470 111° Southeast 480 552 35,000  Level FlightAware
02:53AM 51.1210 1.9010 110° East 480 552 35,000  Level FlightAware
02:54AM 51.0920 2.0280 110° East 479 551 35,000  Level FlightAware
02:55AM 51.0590 2.1840 109° East 477 549 35,000  Level FlightAware
02:55AM 51.0408 2.3133 109° East 450 518 35,000  Level FlightAware UK
02:55AM 51.0400 2.3150 109° East 478 550 35,000  Level FlightAware
02:56AM 51.0200 2.4573 109° East 450 518 35,000  Level FlightAware UK
02:56AM 51.0170 2.4770 109° East 478 550 35,000  Level FlightAware
02:57AM 50.9990 2.6100 102° East 478 550 35,000  Level FlightAware
02:57AM 50.9790 2.7490 103° East 479 551 35,000  Level FlightAware
02:58AM 50.9570 2.8990 103° East 478 550 35,000  Level FlightAware
02:59AM 50.9390 3.0250 103° East 478 550 35,000  Level FlightAware
02:59AM 50.9140 3.1520 107° East 479 551 35,000  Level FlightAware
03:00AM 50.8618 3.3465 107° East 452 520 35,000  Level FlightAware UK
03:00AM 50.8610 3.3490 107° East 480 552 35,000  Level FlightAware
03:01AM 50.8310 3.4590 113° Southeast 481 554 35,000  Level FlightAware
03:02AM 50.7880 3.6140 114° Southeast 480 552 35,000  Level FlightAware
03:02AM 50.7490 3.7510 114° Southeast 479 551 35,000  Level FlightAware
03:03AM 50.7090 3.8940 114° Southeast 478 550 35,000  Level FlightAware
03:04AM 50.6740 4.0170 114° Southeast 477 549 35,000  Level FlightAware
03:05AM 50.6365 4.1512 114° Southeast 454 522 35,000  Level FlightAware UK
03:05AM 50.6340 4.1580 114° Southeast 476 548 35,000  Level FlightAware
03:05AM 50.5982 4.2841 114° Southeast 454 522 35,000  Level FlightAware UK
03:05AM 50.5980 4.2830 114° Southeast 476 548 35,000  Level FlightAware
03:06AM 50.5630 4.4050 114° Southeast 476 548 35,000  Level FlightAware
03:07AM 50.5240 4.5410 114° Southeast 475 547 35,000 780 Level FlightAware
03:08AM 50.4690 4.7290 115° Southeast 471 542 36,400 1,260 Climbing FlightAware
03:08AM 50.4380 4.8330 115° Southeast 473 544 37,000 480 Climbing FlightAware
03:09AM 50.4020 4.9540 115° Southeast 478 550 37,000  Level FlightAware
03:10AM 50.3620 5.0920 114° Southeast 475 547 37,000  Level FlightAware
03:10AM 50.3290 5.2000 116° Southeast 472 543 37,000  Level FlightAware
03:11AM 50.2920 5.3240 115° Southeast 470 541 37,000  Level FlightAware
03:12AM 50.2490 5.4660 115° Southeast 467 537 37,000  Level FlightAware
03:12AM 50.2160 5.5760 115° Southeast 466 536 37,000  Level FlightAware
03:13AM 50.1780 5.7030 115° Southeast 466 536 37,000  Level FlightAware
03:14AM 50.1330 5.8480 116° Southeast 466 536 37,000  Level FlightAware
03:14AM 50.0980 5.9630 115° Southeast 467 537 37,000  Level FlightAware
03:15AM 50.0620 6.0780 116° Southeast 467 537 37,000  Level FlightAware
03:16AM 50.0260 6.1950 116° Southeast 470 541 37,000  Level FlightAware
03:16AM 49.9830 6.3330 116° Southeast 471 542 37,000  Level FlightAware
03:17AM 49.9450 6.4550 116° Southeast 473 544 37,000  Level FlightAware
03:18AM 49.9100 6.5630 117° Southeast 473 544 37,000  Level FlightAware
03:18AM 49.8690 6.6920 116° Southeast 474 545 37,000  Level FlightAware
03:19AM 49.8280 6.8180 117° Southeast 475 547 37,000  Level FlightAware
03:20AM 49.7860 6.9470 117° Southeast 476 548 37,000  Level FlightAware
03:20AM 49.7560 7.0390 117° Southeast 476 548 37,000  Level FlightAware
03:21AM 49.7210 7.1480 116° Southeast 477 549 37,000  Level FlightAware
03:22AM 49.6710 7.3020 117° Southeast 478 550 37,000  Level FlightAware
03:22AM 49.6410 7.3910 117° Southeast 477 549 37,000  Level FlightAware
03:23AM 49.6020 7.5090 117° Southeast 477 549 37,000  Level FlightAware
03:24AM 49.5410 7.6920 117° Southeast 475 547 37,000  Level FlightAware
03:25AM 49.5000 7.8140 117° Southeast 474 545 37,000  Level FlightAware
03:25AM 49.4610 7.9310 117° Southeast 474 545 37,000  Level FlightAware
03:26AM 49.4150 8.0650 118° Southeast 473 544 37,000  Level FlightAware
03:27AM 49.3720 8.1910 118° Southeast 472 543 37,000  Level FlightAware
03:27AM 49.3370 8.2920 118° Southeast 471 542 37,000  Level FlightAware
03:28AM 49.2950 8.4120 118° Southeast 470 541 37,000  Level FlightAware
03:29AM 49.2520 8.5390 117° Southeast 468 539 37,000  Level FlightAware
03:29AM 49.2110 8.6610 117° Southeast 465 535 37,000  Level FlightAware
03:30AM 49.1710 8.7830 117° Southeast 462 532 37,000  Level FlightAware
03:31AM 49.1300 8.9050 117° Southeast 460 529 37,000  Level FlightAware
03:32AM 49.0790 9.0590 117° Southeast 459 528 37,000  Level FlightAware
03:32AM 49.0410 9.1650 119° Southeast 459 528 37,000  Level FlightAware
03:33AM 48.9970 9.2870 119° Southeast 458 527 37,000  Level FlightAware
03:34AM 48.9550 9.4120 117° Southeast 454 522 37,000 240 Level FlightAware
03:34AM 48.9090 9.5350 120° Southeast 452 520 37,400 660 Climbing FlightAware
03:35AM 48.8660 9.6420 121° Southeast 452 520 38,000 780 Climbing FlightAware
03:36AM 48.8250 9.7460 121° Southeast 454 522 38,500 600 Climbing FlightAware
03:36AM 48.7830 9.8540 121° Southeast 458 527 38,800 360 Climbing FlightAware
03:37AM 48.7390 9.9680 120° Southeast 461 531 39,000 120 Climbing FlightAware
03:38AM 48.6940 10.0810 121° Southeast 460 529 39,000  Level FlightAware
03:38AM 48.6510 10.1920 120° Southeast 460 529 39,000  Level FlightAware
03:39AM 48.6060 10.3060 121° Southeast 460 529 39,000  Level FlightAware
03:40AM 48.5580 10.4270 121° Southeast 467 537 39,000  Level FlightAware
03:40AM 48.5170 10.5290 121° Southeast 468 539 39,000  Level FlightAware
03:41AM 48.4610 10.6670 121° Southeast 469 540 39,000  Level FlightAware
03:42AM 48.4170 10.7770 121° Southeast 470 541 39,000  Level FlightAware
03:43AM 48.3520 10.9340 122° Southeast 470 541 39,000  Level FlightAware
03:43AM 48.3200 11.0130 121° Southeast 466 536 39,000  Level FlightAware
03:44AM 48.2670 11.1430 121° Southeast 467 537 39,000  Level FlightAware
03:45AM 48.2220 11.2520 122° Southeast 467 537 39,000  Level FlightAware
03:45AM 48.1760 11.3640 122° Southeast 467 537 39,000  Level FlightAware
03:46AM 48.1240 11.4880 122° Southeast 466 536 39,000  Level FlightAware
03:47AM 48.0790 11.5970 122° Southeast 465 535 39,000  Level FlightAware
03:47AM 48.0320 11.7070 123° Southeast 464 534 39,000  Level FlightAware
03:48AM 47.9860 11.8160 122° Southeast 464 534 39,000  Level FlightAware
03:49AM 47.9330 11.9410 122° Southeast 464 534 39,000  Level FlightAware
03:49AM 47.8940 12.0340 122° Southeast 463 533 39,000  Level FlightAware
03:50AM 47.8470 12.1440 122° Southeast 462 532 39,000  Level FlightAware
03:51AM 47.8030 12.2450 123° Southeast 462 532 39,000  Level FlightAware
03:51AM 47.7560 12.3560 122° Southeast 462 532 39,000  Level FlightAware
03:52AM 47.7100 12.4610 123° Southeast 461 531 39,000  Level FlightAware
03:53AM 47.6620 12.5720 123° Southeast 460 529 39,000  Level FlightAware
03:54AM 47.6100 12.6910 123° Southeast 459 528 39,000  Level FlightAware
03:54AM 47.5630 12.7980 123° Southeast 457 526 39,000  Level FlightAware
03:55AM 47.5190 12.8990 123° Southeast 456 525 39,000  Level FlightAware
03:56AM 47.4650 13.0200 123° Southeast 454 522 39,000  Level FlightAware
03:56AM 47.4190 13.1250 123° Southeast 454 522 39,000  Level FlightAware
03:57AM 47.3720 13.2310 123° Southeast 454 522 39,000  Level FlightAware
03:58AM 47.3250 13.3320 124° Southeast 459 528 39,000  Level FlightAware
03:58AM 47.2700 13.4300 130° Southeast 455 524 39,000  Level FlightAware
03:59AM 47.2110 13.5320 130° Southeast 460 529 39,000  Level FlightAware
04:00AM 47.1620 13.6150 131° Southeast 460 529 39,000  Level FlightAware
04:00AM 47.1000 13.7200 131° Southeast 460 529 39,000  Level FlightAware
04:01AM 47.0360 13.8280 131° Southeast 460 529 39,000  Level FlightAware
04:02AM 46.9810 13.9220 131° Southeast 461 531 39,000  Level FlightAware
04:03AM 46.9170 14.0300 131° Southeast 462 532 39,000  Level FlightAware
04:03AM 46.8680 14.1140 130° Southeast 461 531 39,000  Level FlightAware
04:04AM 46.8100 14.2410 124° Southeast 461 531 39,000  Level FlightAware
04:05AM 46.7680 14.3330 124° Southeast 461 531 39,000  Level FlightAware
04:05AM 46.7150 14.4460 124° Southeast 462 532 39,000  Level FlightAware
04:06AM 46.6680 14.5490 124° Southeast 461 531 39,000  Level FlightAware
04:07AM 46.6200 14.6560 123° Southeast 460 529 39,000  Level FlightAware
04:07AM 46.5660 14.7740 124° Southeast 460 529 39,000  Level FlightAware
04:08AM 46.5110 14.8950 123° Southeast 461 531 39,000  Level FlightAware
04:09AM 46.4600 15.0050 124° Southeast 461 531 39,000  Level FlightAware
04:10AM 46.4190 15.0950 123° Southeast 461 531 39,000  Level FlightAware
04:10AM 46.3660 15.2090 124° Southeast 461 531 39,000  Level FlightAware
04:11AM 46.3180 15.3120 124° Southeast 461 531 39,000  Level FlightAware
04:12AM 46.2710 15.4130 124° Southeast 462 532 39,000  Level FlightAware
04:12AM 46.2220 15.5200 123° Southeast 462 532 39,000  Level FlightAware
04:13AM 46.1750 15.6190 124° Southeast 462 532 39,000  Level FlightAware
04:14AM 46.1280 15.7460 118° Southeast 462 532 39,000  Level FlightAware
04:14AM 46.1020 15.8470 110° East 462 532 39,000  Level FlightAware
04:15AM 46.0600 15.9920 113° Southeast 463 533 39,000  Level FlightAware
04:16AM 46.0250 16.1080 113° Southeast 464 534 39,000  Level FlightAware
04:17AM 45.9900 16.2250 113° Southeast 464 534 39,000  Level FlightAware
04:18AM 45.9350 16.4060 114° Southeast 462 532 39,000  Level FlightAware
04:18AM 45.9050 16.5100 112° Southeast 461 531 39,000  Level FlightAware
04:19AM 45.8760 16.6120 112° Southeast 461 531 39,000  Level FlightAware
04:20AM 45.8420 16.7280 113° Southeast 460 529 39,000  Level FlightAware
04:20AM 45.8040 16.8590 113° Southeast 460 529 39,000  Level FlightAware
04:21AM 45.7710 16.9700 113° Southeast 460 529 39,000  Level FlightAware
04:22AM 45.7410 17.0730 113° Southeast 459 528 39,000  Level FlightAware
04:22AM 45.7010 17.2080 113° Southeast 459 528 39,000  Level FlightAware
04:23AM 45.6670 17.3190 114° Southeast 458 527 39,000  Level FlightAware
04:24AM 45.6310 17.4420 113° Southeast 457 526 39,000  Level FlightAware
04:24AM 45.5970 17.5560 113° Southeast 459 528 39,000  Level FlightAware
04:25AM 45.5620 17.6690 114° Southeast 457 526 39,000  Level FlightAware
04:26AM 45.5250 17.7920 113° Southeast 457 526 39,000  Level FlightAware
04:27AM 45.4870 17.9150 114° Southeast 458 527 39,000  Level FlightAware
04:27AM 45.4550 18.0210 113° Southeast 458 527 39,000  Level FlightAware
04:28AM 45.4190 18.1370 114° Southeast 456 525 39,000  Level FlightAware
04:29AM 45.3850 18.2490 113° Southeast 456 525 39,000  Level FlightAware
04:29AM 45.3470 18.3710 114° Southeast 460 529 39,000  Level FlightAware
04:30AM 45.3040 18.4870 118° Southeast 459 528 39,000  Level FlightAware
04:31AM 45.2700 18.5790 118° Southeast 459 528 39,000  Level FlightAware
04:31AM 45.2240 18.6970 119° Southeast 459 528 39,000  Level FlightAware
04:32AM 45.1830 18.8020 119° Southeast 458 527 39,000  Level FlightAware
04:33AM 45.1400 18.9130 119° Southeast 458 527 39,000  Level FlightAware
04:33AM 45.0930 19.0330 119° Southeast 460 529 39,000  Level FlightAware
04:34AM 45.0570 19.1280 118° Southeast 459 528 39,000  Level FlightAware
04:35AM 45.0090 19.2490 119° Southeast 459 528 39,000  Level FlightAware
04:36AM 44.9630 19.3640 119° Southeast 460 529 39,000  Level FlightAware
04:36AM 44.9230 19.4650 119° Southeast 460 529 39,000  Level FlightAware
04:37AM 44.8780 19.5790 119° Southeast 460 529 39,000  Level FlightAware
04:38AM 44.8370 19.6810 120° Southeast 461 531 39,000  Level FlightAware
04:38AM 44.7890 19.8020 119° Southeast 461 531 39,000  Level FlightAware
04:39AM 44.7510 19.8950 120° Southeast 460 529 39,000  Level FlightAware
04:40AM 44.7090 20.0000 119° Southeast 460 529 39,000  Level FlightAware
04:40AM 44.6670 20.1030 120° Southeast 459 528 39,000  Level FlightAware
04:41AM 44.6240 20.2080 120° Southeast 460 529 39,000  Level FlightAware
04:42AM 44.5910 20.2880 120° Southeast 459 528 39,000  Level FlightAware
04:42AM 44.5480 20.3940 120° Southeast 459 528 39,000  Level FlightAware
04:43AM 44.5040 20.5000 120° Southeast 460 529 39,000  Level FlightAware
04:44AM 44.4610 20.6040 120° Southeast 460 529 39,000  Level FlightAware
04:44AM 44.4120 20.7220 120° Southeast 461 531 39,000  Level FlightAware
04:45AM 44.3690 20.8270 120° Southeast 461 531 39,000  Level FlightAware
04:46AM 44.3260 20.9280 121° Southeast 461 531 39,000  Level FlightAware
04:46AM 44.2780 21.0420 120° Southeast 462 532 39,000  Level FlightAware
04:47AM 44.2300 21.1560 120° Southeast 462 532 39,000  Level FlightAware
04:48AM 44.1890 21.2550 120° Southeast 462 532 39,000  Level FlightAware
04:49AM 44.1310 21.3900 121° Southeast 462 532 39,000  Level FlightAware
04:49AM 44.0880 21.4920 120° Southeast 462 532 39,000  Level FlightAware
04:50AM 44.0370 21.6110 121° Southeast 462 532 39,000  Level FlightAware
04:51AM 43.9880 21.7250 121° Southeast 463 533 39,000  Level FlightAware
04:52AM 43.9460 21.8210 121° Southeast 462 532 39,000  Level FlightAware
04:52AM 43.9000 21.9270 121° Southeast 463 533 39,000  Level FlightAware
04:53AM 43.8600 22.0210 121° Southeast 463 533 39,000  Level FlightAware
04:54AM 43.8100 22.1350 121° Southeast 464 534 39,000  Level FlightAware
04:54AM 43.7730 22.2210 121° Southeast 464 534 39,000  Level FlightAware
04:55AM 43.7330 22.3120 121° Southeast 464 534 39,000  Level FlightAware
04:55AM 43.6860 22.4260 120° Southeast 465 535 39,000  Level FlightAware
04:56AM 43.6390 22.5410 119° Southeast 466 536 39,000  Level FlightAware
04:57AM 43.5970 22.6450 119° Southeast 468 539 39,000  Level FlightAware
04:58AM 43.5490 22.7600 120° Southeast 468 539 39,000  Level FlightAware
04:58AM 43.5170 22.8400 119° Southeast 469 540 39,000  Level FlightAware
04:59AM 43.4690 22.9530 120° Southeast 470 541 39,000  Level FlightAware
05:00AM 43.4260 23.0570 120° Southeast 470 541 39,000  Level FlightAware
05:00AM 43.3870 23.1520 119° Southeast 470 541 39,000  Level FlightAware
05:01AM 43.3390 23.2660 120° Southeast 472 543 39,000  Level FlightAware
05:02AM 43.2940 23.3710 120° Southeast 474 545 39,000  Level FlightAware
05:02AM 43.2510 23.4740 120° Southeast 475 547 39,000  Level FlightAware
05:03AM 43.2020 23.5910 120° Southeast 476 548 39,000  Level FlightAware
05:04AM 43.1570 23.6950 121° Southeast 477 549 39,000  Level FlightAware
05:04AM 43.1130 23.8000 120° Southeast 479 551 39,000  Level FlightAware
05:05AM 43.0630 23.9160 121° Southeast 480 552 39,000  Level FlightAware
05:06AM 43.0170 24.0230 120° Southeast 481 554 39,000  Level FlightAware
05:06AM 42.9660 24.1400 121° Southeast 481 554 39,000  Level FlightAware
05:07AM 42.9230 24.2400 120° Southeast 482 555 39,000  Level FlightAware
05:08AM 42.8720 24.3570 121° Southeast 483 556 39,000  Level FlightAware
05:09AM 42.8240 24.4670 121° Southeast 484 557 39,000  Level FlightAware
05:09AM 42.7790 24.5700 121° Southeast 484 557 39,000  Level FlightAware
05:10AM 42.7270 24.6890 121° Southeast 484 557 39,000  Level FlightAware
05:11AM 42.6580 24.8440 121° Southeast 484 557 39,000  Level FlightAware
05:12AM 42.6060 24.9610 121° Southeast 483 556 39,000  Level FlightAware
05:12AM 42.5600 25.0650 121° Southeast 484 557 39,000  Level FlightAware
05:13AM 42.5130 25.1700 121° Southeast 484 557 39,000  Level FlightAware
05:14AM 42.4630 25.2810 121° Southeast 483 556 39,000  Level FlightAware
05:14AM 42.4160 25.3870 121° Southeast 483 556 39,000  Level FlightAware
05:15AM 42.3630 25.5040 121° Southeast 483 556 39,000  Level FlightAware
05:16AM 42.3160 25.6080 121° Southeast 484 557 39,000  Level FlightAware
05:17AM 42.2690 25.7090 122° Southeast 484 557 39,000  Level FlightAware
05:17AM 42.2230 25.8100 122° Southeast 484 557 39,000  Level FlightAware
05:18AM 42.1710 25.9250 121° Southeast 483 556 39,000  Level FlightAware
05:19AM 42.0990 26.0800 122° Southeast 482 555 39,000 -420 Level FlightAware
05:20AM 42.0220 26.2460 122° Southeast 483 556 38,200 -960 Descending FlightAware
05:21AM 41.9760 26.3450 122° Southeast 484 557 37,400 -1,260 Descending FlightAware
05:22AM 41.9160 26.4740 122° Southeast 486 559 36,300 -1,440 Descending FlightAware
05:23AM 41.8270 26.6390 126° Southeast 488 562 34,600 -1,800 Descending FlightAware
05:23AM 41.7770 26.7450 122° Southeast 478 550 33,100 -2,040 Descending FlightAware
05:24AM 41.7280 26.8450 123° Southeast 458 527 31,900 -2,040 Descending FlightAware
05:25AM 41.6650 26.9680 124° Southeast 441 507 29,900 -2,220 Descending FlightAware
05:26AM 41.6040 27.0840 125° Southeast 434 499 27,900 -2,220 Descending FlightAware
05:27AM 41.5420 27.2030 125° Southeast 416 479 25,900 -1,800 Descending FlightAware
05:28AM 41.4630 27.3540 125° Southeast 397 457 24,000 -900 Descending FlightAware
05:29AM 41.4060 27.4610 125° Southeast 400 460 24,000  Level FlightAware
05:30AM 41.3410 27.5820 126° Southeast 404 465 24,000 -900 Level FlightAware
05:31AM 41.2880 27.6810 125° Southeast 392 451 22,400 -2,760 Descending FlightAware
05:32AM 41.2360 27.7780 125° Southeast 376 433 19,400 -3,600 Descending FlightAware
05:32AM 41.1860 27.8700 126° Southeast 354 407 16,500 -3,180 Descending FlightAware
05:33AM 41.1460 27.9440 126° Southeast 342 394 14,300 -2,340 Descending FlightAware
05:34AM 41.1120 28.0090 125° Southeast 329 379 13,400 -1,620 Descending FlightAware
05:35AM 41.0790 28.0860 120° Southeast 328 377 12,200 -1,380 Descending FlightAware
05:36AM 41.1110 28.1990 69° East 307 353 11,000 -1,140 Descending FlightAware
05:36AM 41.1400 28.2590 57° Northeast 294 338 10,200 -840 Descending FlightAware
05:37AM 41.1670 28.3160 58° Northeast 288 331 9,900 -1,200 Descending FlightAware
05:37AM 41.1850 28.3550 58° Northeast 281 323 8,900 -1,500 Descending FlightAware
05:38AM 41.2110 28.4130 59° Northeast 263 303 8,400 -600 Descending FlightAware
05:39AM 41.2170 28.4640 81° East 261 300 8,200 -540 Descending FlightAware
05:39AM 41.2100 28.4800 120° Southeast 265 305 8,000 -540 Descending FlightAware
05:39AM 41.1970 28.4930 143° Southeast 271 312 8,000  Level FlightAware
05:39AM 41.1680 28.5180 147° Southeast 8,000  Level FlightAware
05:40AM 41.1400 28.5400 149° Southeast 261 300 8,000  Level FlightAware
05:40AM 41.1030 28.5700 149° Southeast 263 303 8,000 -120 Level FlightAware
05:41AM 41.0620 28.6020 150° Southeast 266 306 7,900 -840 Descending FlightAware
05:42AM 41.0130 28.6260 160° South 266 306 6,900 -1,260 Descending FlightAware
05:42AM 40.9960 28.6160 204° Southwest 265 305 6,600 -1,860 Descending FlightAware
05:43AM 40.9740 28.5770 233° Southwest 262 302 5,500 -1,980 Descending FlightAware
05:43AM 40.9440 28.5120 239° Southwest 268 308 4,100 -1,140 Descending FlightAware
05:44AM 40.9240 28.4670 240° Southwest 265 305 4,000 -120 Descending FlightAware
05:44AM 40.9090 28.4330 240° Southwest 265 305 4,000  Level FlightAware
05:46AM 40.8120 28.2650 90° East 4,000  Level FlightAware
05:47AM 40.9667 28.8000 90° East  Level FlightAware Approximate
05:47AM 40.7850 28.2750 164° South 213 245 4,000  Level FlightAware
05:47AM 40.7780 28.2930 117° Southeast 192 221 4,000  Level FlightAware
05:48AM 40.7730 28.3290 100° East 192 221 4,000  Level FlightAware
05:48AM 40.7700 28.3560 98° East 188 216 4,000  Level FlightAware
05:49AM 40.7730 28.3860 82° East 187 215 4,000  Level FlightAware
05:49AM 40.7910 28.4390 66° East 203 234 4,000  Level FlightAware
05:50AM 40.7950 28.4480 60° Northeast 206 237 4,000  Level FlightAware
05:51AM 40.8260 28.5090 56° Northeast 201 231 4,000  Level FlightAware
05:51AM 40.8410 28.5410 58° Northeast 201 231 4,000  Level FlightAware
05:51AM 40.8520 28.5650 59° Northeast 201 231 4,000 -300 Level FlightAware
05:52AM 40.8710 28.6060 58° Northeast 194 223 3,700 -720 Descending FlightAware
05:52AM 40.8830 28.6320 59° Northeast 187 215 3,300 -1,020 Descending FlightAware
05:54AM 40.9110 28.6920 58° Northeast 170 196 2,200 -960 Descending FlightAware
05:54AM 40.9230 28.7190 60° Northeast 138 159 1,800 -720 Descending FlightAware
05:54AM 40.9280 28.7280 54° Northeast 137 158 1,600 -720 Descending FlightAware
05:55AM 40.9480 28.7710 58° Northeast 129 148 900 -600 Descending FlightAware
05:56AM 40.9600 28.7960 58° Northeast 129 148 700 -300 Descending FlightAware
05:59AM 40.9667 28.8000 90° East  Level FlightAware Approximate
06:00AM 40.9769 28.8211 90° East  Level Estimated